sensor_id;sensor_type;location;lat;lon;timestamp;temperature;humidity
4904;DHT22;2467;48.142;11.616;2023-02-21T00:00:35;9.50;83.60
4904;DHT22;2467;48.142;11.616;2023-02-21T00:01:25;9.50;83.70
4904;DHT22;2467;48.142;11.616;2023-02-21T00:02:15;9.50;83.90
4904;DHT22;2467;48.142;11.616;2023-02-21T00:03:06;9.50;84.00
4904;DHT22;2467;48.142;11.616;2023-02-21T00:03:56;9.50;84.00
4904;DHT22;2467;48.142;11.616;2023-02-21T00:04:47;9.50;84.00
4904;DHT22;2467;48.142;11.616;2023-02-21T00:05:37;9.50;84.00
4904;DHT22;2467;48.142;11.616;2023-02-21T00:06:28;9.50;84.00
4904;DHT22;2467;48.142;11.616;2023-02-21T00:07:19;9.50;84.10
4904;DHT22;2467;48.142;11.616;2023-02-21T00:08:09;9.50;84.20
4904;DHT22;2467;48.142;11.616;2023-02-21T00:08:59;9.50;84.30
4904;DHT22;2467;48.142;11.616;2023-02-21T00:09:50;9.50;84.30
4904;DHT22;2467;48.142;11.616;2023-02-21T00:10:41;9.50;84.50
4904;DHT22;2467;48.142;11.616;2023-02-21T00:11:31;9.40;84.40
4904;DHT22;2467;48.142;11.616;2023-02-21T00:12:21;9.40;84.50
4904;DHT22;2467;48.142;11.616;2023-02-21T00:13:12;9.40;84.70
4904;DHT22;2467;48.142;11.616;2023-02-21T00:14:03;9.40;84.80
4904;DHT22;2467;48.142;11.616;2023-02-21T00:14:53;9.40;85.10
4904;DHT22;2467;48.142;11.616;2023-02-21T00:15:45;9.40;85.30
4904;DHT22;2467;48.142;11.616;2023-02-21T00:16:35;9.40;85.30
4904;DHT22;2467;48.142;11.616;2023-02-21T00:17:25;9.50;85.00
4904;DHT22;2467;48.142;11.616;2023-02-21T00:18:16;9.50;84.90
4904;DHT22;2467;48.142;11.616;2023-02-21T00:19:07;9.50;84.80
4904;DHT22;2467;48.142;11.616;2023-02-21T00:19:58;9.50;84.70
4904;DHT22;2467;48.142;11.616;2023-02-21T00:20:49;9.50;84.60
4904;DHT22;2467;48.142;11.616;2023-02-21T00:21:39;9.50;84.50
4904;DHT22;2467;48.142;11.616;2023-02-21T00:22:30;9.50;84.60
4904;DHT22;2467;48.142;11.616;2023-02-21T00:23:20;9.50;84.70
4904;DHT22;2467;48.142;11.616;2023-02-21T00:24:12;9.50;84.80
4904;DHT22;2467;48.142;11.616;2023-02-21T00:25:03;9.50;84.90
4904;DHT22;2467;48.142;11.616;2023-02-21T00:25:54;9.50;84.90
4904;DHT22;2467;48.142;11.616;2023-02-21T00:26:44;9.50;84.80
4904;DHT22;2467;48.142;11.616;2023-02-21T00:27:35;9.50;84.90
4904;DHT22;2467;48.142;11.616;2023-02-21T00:28:25;9.50;85.00
4904;DHT22;2467;48.142;11.616;2023-02-21T00:29:16;9.50;85.00
4904;DHT22;2467;48.142;11.616;2023-02-21T00:30:08;9.50;84.90
4904;DHT22;2467;48.142;11.616;2023-02-21T00:31:00;9.50;85.40
4904;DHT22;2467;48.142;11.616;2023-02-21T00:31:51;9.40;85.10
4904;DHT22;2467;48.142;11.616;2023-02-21T00:32:41;9.40;85.40
4904;DHT22;2467;48.142;11.616;2023-02-21T00:33:34;9.50;86.20
4904;DHT22;2467;48.142;11.616;2023-02-21T00:34:25;9.50;85.50
4904;DHT22;2467;48.142;11.616;2023-02-21T00:35:15;9.50;85.20
4904;DHT22;2467;48.142;11.616;2023-02-21T00:36:06;9.50;85.00
4904;DHT22;2467;48.142;11.616;2023-02-21T00:36:57;9.50;85.00
4904;DHT22;2467;48.142;11.616;2023-02-21T00:37:48;9.50;85.20
4904;DHT22;2467;48.142;11.616;2023-02-21T00:38:39;9.50;85.30
4904;DHT22;2467;48.142;11.616;2023-02-21T00:39:29;9.40;85.40
4904;DHT22;2467;48.142;11.616;2023-02-21T00:40:20;9.50;85.70
4904;DHT22;2467;48.142;11.616;2023-02-21T00:41:10;9.50;85.70
4904;DHT22;2467;48.142;11.616;2023-02-21T00:42:01;9.50;85.60
4904;DHT22;2467;48.142;11.616;2023-02-21T00:42:51;9.50;85.60
4904;DHT22;2467;48.142;11.616;2023-02-21T00:43:42;9.50;85.70
4904;DHT22;2467;48.142;11.616;2023-02-21T00:44:32;9.40;85.80
4904;DHT22;2467;48.142;11.616;2023-02-21T00:45:22;9.40;86.10
4904;DHT22;2467;48.142;11.616;2023-02-21T00:46:14;9.40;86.20
4904;DHT22;2467;48.142;11.616;2023-02-21T00:47:05;9.40;86.40
4904;DHT22;2467;48.142;11.616;2023-02-21T00:47:56;9.40;86.60
4904;DHT22;2467;48.142;11.616;2023-02-21T00:48:46;9.40;86.60
4904;DHT22;2467;48.142;11.616;2023-02-21T00:49:36;9.40;86.60
4904;DHT22;2467;48.142;11.616;2023-02-21T00:50:27;9.40;86.60
4904;DHT22;2467;48.142;11.616;2023-02-21T00:51:17;9.40;86.70
4904;DHT22;2467;48.142;11.616;2023-02-21T00:52:08;9.40;86.90
4904;DHT22;2467;48.142;11.616;2023-02-21T00:52:58;9.40;87.40
4904;DHT22;2467;48.142;11.616;2023-02-21T00:53:49;9.30;87.60
4904;DHT22;2467;48.142;11.616;2023-02-21T00:54:39;9.40;87.60
4904;DHT22;2467;48.142;11.616;2023-02-21T00:55:29;9.40;87.50
4904;DHT22;2467;48.142;11.616;2023-02-21T00:56:20;9.40;87.30
4904;DHT22;2467;48.142;11.616;2023-02-21T00:57:10;9.40;87.40
4904;DHT22;2467;48.142;11.616;2023-02-21T00:58:01;9.40;87.30
4904;DHT22;2467;48.142;11.616;2023-02-21T00:58:51;9.40;87.10
4904;DHT22;2467;48.142;11.616;2023-02-21T00:59:42;9.40;87.10
4904;DHT22;2467;48.142;11.616;2023-02-21T01:00:32;9.30;87.10
4904;DHT22;2467;48.142;11.616;2023-02-21T01:01:24;9.30;87.30
4904;DHT22;2467;48.142;11.616;2023-02-21T01:02:15;9.30;87.30
4904;DHT22;2467;48.142;11.616;2023-02-21T01:03:06;9.40;87.30
4904;DHT22;2467;48.142;11.616;2023-02-21T01:03:57;9.40;87.30
4904;DHT22;2467;48.142;11.616;2023-02-21T01:04:47;9.40;87.30
4904;DHT22;2467;48.142;11.616;2023-02-21T01:05:38;9.40;87.40
4904;DHT22;2467;48.142;11.616;2023-02-21T01:06:28;9.40;87.40
4904;DHT22;2467;48.142;11.616;2023-02-21T01:07:18;9.40;87.50
4904;DHT22;2467;48.142;11.616;2023-02-21T01:08:09;9.40;87.50
4904;DHT22;2467;48.142;11.616;2023-02-21T01:08:59;9.40;87.70
4904;DHT22;2467;48.142;11.616;2023-02-21T01:09:50;9.40;87.80
4904;DHT22;2467;48.142;11.616;2023-02-21T01:10:40;9.40;87.90
4904;DHT22;2467;48.142;11.616;2023-02-21T01:11:31;9.40;88.10
4904;DHT22;2467;48.142;11.616;2023-02-21T01:12:21;9.40;88.10
4904;DHT22;2467;48.142;11.616;2023-02-21T01:13:12;9.40;88.00
4904;DHT22;2467;48.142;11.616;2023-02-21T01:14:03;9.40;87.90
4904;DHT22;2467;48.142;11.616;2023-02-21T01:14:54;9.40;87.90
4904;DHT22;2467;48.142;11.616;2023-02-21T01:15:44;9.30;87.90
4904;DHT22;2467;48.142;11.616;2023-02-21T01:16:36;9.40;88.00
4904;DHT22;2467;48.142;11.616;2023-02-21T01:17:38;9.40;88.10
4904;DHT22;2467;48.142;11.616;2023-02-21T01:18:28;9.40;88.00
4904;DHT22;2467;48.142;11.616;2023-02-21T01:19:19;9.40;88.00
4904;DHT22;2467;48.142;11.616;2023-02-21T01:20:09;9.40;88.10
4904;DHT22;2467;48.142;11.616;2023-02-21T01:21:00;9.40;88.20
4904;DHT22;2467;48.142;11.616;2023-02-21T01:21:51;9.50;88.40
4904;DHT22;2467;48.142;11.616;2023-02-21T01:22:41;9.40;88.40
4904;DHT22;2467;48.142;11.616;2023-02-21T01:23:31;9.40;88.50
4904;DHT22;2467;48.142;11.616;2023-02-21T01:24:22;9.40;88.60
4904;DHT22;2467;48.142;11.616;2023-02-21T01:25:13;9.30;88.80
4904;DHT22;2467;48.142;11.616;2023-02-21T01:26:03;9.30;89.00
4904;DHT22;2467;48.142;11.616;2023-02-21T01:26:54;9.30;89.20
4904;DHT22;2467;48.142;11.616;2023-02-21T01:27:45;9.30;89.50
4904;DHT22;2467;48.142;11.616;2023-02-21T01:28:35;9.30;89.60
4904;DHT22;2467;48.142;11.616;2023-02-21T01:29:26;9.30;89.50
4904;DHT22;2467;48.142;11.616;2023-02-21T01:30:16;9.20;89.50
4904;DHT22;2467;48.142;11.616;2023-02-21T01:31:07;9.20;89.50
4904;DHT22;2467;48.142;11.616;2023-02-21T01:31:58;9.20;89.70
4904;DHT22;2467;48.142;11.616;2023-02-21T01:32:49;9.20;89.90
4904;DHT22;2467;48.142;11.616;2023-02-21T01:33:40;9.10;90.00
4904;DHT22;2467;48.142;11.616;2023-02-21T01:34:30;9.10;90.10
4904;DHT22;2467;48.142;11.616;2023-02-21T01:35:20;9.10;90.20
4904;DHT22;2467;48.142;11.616;2023-02-21T01:36:11;9.10;90.20
4904;DHT22;2467;48.142;11.616;2023-02-21T01:37:01;9.00;90.30
4904;DHT22;2467;48.142;11.616;2023-02-21T01:37:52;9.00;90.50
4904;DHT22;2467;48.142;11.616;2023-02-21T01:38:42;9.00;90.60
4904;DHT22;2467;48.142;11.616;2023-02-21T01:39:33;9.10;90.70
4904;DHT22;2467;48.142;11.616;2023-02-21T01:40:23;9.10;90.70
4904;DHT22;2467;48.142;11.616;2023-02-21T01:41:14;9.10;90.70
4904;DHT22;2467;48.142;11.616;2023-02-21T01:42:04;9.10;90.70
4904;DHT22;2467;48.142;11.616;2023-02-21T01:42:55;9.10;90.70
4904;DHT22;2467;48.142;11.616;2023-02-21T01:43:59;9.10;90.80
4904;DHT22;2467;48.142;11.616;2023-02-21T01:46:15;9.10;90.80
4904;DHT22;2467;48.142;11.616;2023-02-21T01:47:09;9.10;90.70
4904;DHT22;2467;48.142;11.616;2023-02-21T01:48:00;9.00;90.80
4904;DHT22;2467;48.142;11.616;2023-02-21T01:48:52;9.00;91.00
4904;DHT22;2467;48.142;11.616;2023-02-21T01:49:43;9.00;91.20
4904;DHT22;2467;48.142;11.616;2023-02-21T01:50:33;9.00;91.20
4904;DHT22;2467;48.142;11.616;2023-02-21T01:51:27;9.00;91.10
4904;DHT22;2467;48.142;11.616;2023-02-21T01:52:20;9.00;91.20
4904;DHT22;2467;48.142;11.616;2023-02-21T01:53:14;9.00;91.20
4904;DHT22;2467;48.142;11.616;2023-02-21T01:54:06;9.00;91.20
4904;DHT22;2467;48.142;11.616;2023-02-21T01:54:57;8.90;91.20
4904;DHT22;2467;48.142;11.616;2023-02-21T01:55:48;9.00;91.30
4904;DHT22;2467;48.142;11.616;2023-02-21T01:56:39;8.90;91.30
4904;DHT22;2467;48.142;11.616;2023-02-21T01:57:31;9.00;91.40
4904;DHT22;2467;48.142;11.616;2023-02-21T01:58:23;9.00;91.40
4904;DHT22;2467;48.142;11.616;2023-02-21T01:59:15;9.00;91.40
4904;DHT22;2467;48.142;11.616;2023-02-21T02:00:08;8.90;91.40
4904;DHT22;2467;48.142;11.616;2023-02-21T02:00:59;8.90;91.50
4904;DHT22;2467;48.142;11.616;2023-02-21T02:01:53;8.80;91.70
4904;DHT22;2467;48.142;11.616;2023-02-21T02:02:50;8.80;91.50
4904;DHT22;2467;48.142;11.616;2023-02-21T02:03:42;8.80;91.50
4904;DHT22;2467;48.142;11.616;2023-02-21T02:04:33;8.80;91.50
4904;DHT22;2467;48.142;11.616;2023-02-21T02:05:25;8.80;91.70
4904;DHT22;2467;48.142;11.616;2023-02-21T02:06:16;8.70;91.90
4904;DHT22;2467;48.142;11.616;2023-02-21T02:07:08;8.70;92.00
4904;DHT22;2467;48.142;11.616;2023-02-21T02:07:58;8.70;92.10
4904;DHT22;2467;48.142;11.616;2023-02-21T02:08:49;8.70;92.10
4904;DHT22;2467;48.142;11.616;2023-02-21T02:09:39;8.70;92.10
4904;DHT22;2467;48.142;11.616;2023-02-21T02:10:30;8.70;92.10
4904;DHT22;2467;48.142;11.616;2023-02-21T02:11:38;8.70;92.20
4904;DHT22;2467;48.142;11.616;2023-02-21T02:12:55;8.70;92.20
4904;DHT22;2467;48.142;11.616;2023-02-21T02:13:51;8.70;92.30
4904;DHT22;2467;48.142;11.616;2023-02-21T02:15:38;8.70;92.30
4904;DHT22;2467;48.142;11.616;2023-02-21T02:16:19;8.70;92.40
4904;DHT22;2467;48.142;11.616;2023-02-21T02:17:00;8.70;92.50
4904;DHT22;2467;48.142;11.616;2023-02-21T02:17:43;8.70;92.60
4904;DHT22;2467;48.142;11.616;2023-02-21T02:20:09;8.70;92.70
4904;DHT22;2467;48.142;11.616;2023-02-21T02:22:13;8.60;93.00
4904;DHT22;2467;48.142;11.616;2023-02-21T02:24:45;8.60;93.20
4904;DHT22;2467;48.142;11.616;2023-02-21T02:25:35;8.60;93.40
4904;DHT22;2467;48.142;11.616;2023-02-21T02:28:01;8.60;93.30
4904;DHT22;2467;48.142;11.616;2023-02-21T02:28:48;8.60;93.50
4904;DHT22;2467;48.142;11.616;2023-02-21T02:29:44;8.60;93.50
4904;DHT22;2467;48.142;11.616;2023-02-21T02:30:42;8.60;93.40
4904;DHT22;2467;48.142;11.616;2023-02-21T02:31:30;8.60;93.40
4904;DHT22;2467;48.142;11.616;2023-02-21T02:32:26;8.60;93.40
4904;DHT22;2467;48.142;11.616;2023-02-21T02:34:30;8.60;93.80
4904;DHT22;2467;48.142;11.616;2023-02-21T02:35:08;8.60;93.80
4904;DHT22;2467;48.142;11.616;2023-02-21T02:35:45;8.60;93.90
4904;DHT22;2467;48.142;11.616;2023-02-21T02:36:21;8.60;93.90
4904;DHT22;2467;48.142;11.616;2023-02-21T02:37:00;8.60;93.90
4904;DHT22;2467;48.142;11.616;2023-02-21T02:37:38;8.60;93.90
4904;DHT22;2467;48.142;11.616;2023-02-21T02:38:20;8.60;93.80
4904;DHT22;2467;48.142;11.616;2023-02-21T02:39:01;8.70;93.90
4904;DHT22;2467;48.142;11.616;2023-02-21T02:39:40;8.70;94.00
4904;DHT22;2467;48.142;11.616;2023-02-21T02:40:21;8.70;93.90
4904;DHT22;2467;48.142;11.616;2023-02-21T02:41:03;8.70;93.80
4904;DHT22;2467;48.142;11.616;2023-02-21T02:41:45;8.70;93.80
4904;DHT22;2467;48.142;11.616;2023-02-21T02:42:34;8.70;94.00
4904;DHT22;2467;48.142;11.616;2023-02-21T02:43:11;8.70;93.80
4904;DHT22;2467;48.142;11.616;2023-02-21T02:43:51;8.70;93.80
4904;DHT22;2467;48.142;11.616;2023-02-21T02:44:30;8.70;93.80
4904;DHT22;2467;48.142;11.616;2023-02-21T02:45:08;8.70;93.70
4904;DHT22;2467;48.142;11.616;2023-02-21T02:45:47;8.70;93.70
4904;DHT22;2467;48.142;11.616;2023-02-21T02:46:25;8.70;93.70
4904;DHT22;2467;48.142;11.616;2023-02-21T02:47:00;8.70;93.70
4904;DHT22;2467;48.142;11.616;2023-02-21T02:47:36;8.70;93.60
4904;DHT22;2467;48.142;11.616;2023-02-21T02:48:13;8.70;93.60
4904;DHT22;2467;48.142;11.616;2023-02-21T02:48:52;8.60;93.60
4904;DHT22;2467;48.142;11.616;2023-02-21T02:49:28;8.60;93.70
4904;DHT22;2467;48.142;11.616;2023-02-21T02:50:03;8.60;93.80
4904;DHT22;2467;48.142;11.616;2023-02-21T02:50:36;8.60;93.90
4904;DHT22;2467;48.142;11.616;2023-02-21T02:51:13;8.60;93.90
4904;DHT22;2467;48.142;11.616;2023-02-21T02:51:45;8.60;93.90
4904;DHT22;2467;48.142;11.616;2023-02-21T02:52:17;8.60;94.00
4904;DHT22;2467;48.142;11.616;2023-02-21T02:52:51;8.60;94.00
4904;DHT22;2467;48.142;11.616;2023-02-21T02:53:26;8.60;94.10
4904;DHT22;2467;48.142;11.616;2023-02-21T02:53:59;8.50;94.00
4904;DHT22;2467;48.142;11.616;2023-02-21T02:54:32;8.50;94.10
4904;DHT22;2467;48.142;11.616;2023-02-21T02:55:21;8.50;94.10
4904;DHT22;2467;48.142;11.616;2023-02-21T02:55:56;8.50;94.20
4904;DHT22;2467;48.142;11.616;2023-02-21T02:56:30;8.50;94.20
4904;DHT22;2467;48.142;11.616;2023-02-21T02:57:04;8.50;94.30
4904;DHT22;2467;48.142;11.616;2023-02-21T02:57:41;8.50;94.40
4904;DHT22;2467;48.142;11.616;2023-02-21T02:58:19;8.50;94.50
4904;DHT22;2467;48.142;11.616;2023-02-21T02:58:55;8.40;94.50
4904;DHT22;2467;48.142;11.616;2023-02-21T02:59:30;8.40;94.60
4904;DHT22;2467;48.142;11.616;2023-02-21T03:00:06;8.40;94.60
4904;DHT22;2467;48.142;11.616;2023-02-21T03:00:41;8.40;94.70
4904;DHT22;2467;48.142;11.616;2023-02-21T03:01:33;8.40;94.70
4904;DHT22;2467;48.142;11.616;2023-02-21T03:02:28;8.40;94.70
4904;DHT22;2467;48.142;11.616;2023-02-21T03:03:28;8.40;94.80
4904;DHT22;2467;48.142;11.616;2023-02-21T03:04:19;8.40;95.00
4904;DHT22;2467;48.142;11.616;2023-02-21T03:05:10;8.40;95.10
4904;DHT22;2467;48.142;11.616;2023-02-21T03:05:57;8.40;95.30
4904;DHT22;2467;48.142;11.616;2023-02-21T03:06:36;8.40;95.50
4904;DHT22;2467;48.142;11.616;2023-02-21T03:07:17;8.40;95.60
4904;DHT22;2467;48.142;11.616;2023-02-21T03:07:58;8.40;95.70
4904;DHT22;2467;48.142;11.616;2023-02-21T03:08:39;8.40;95.70
4904;DHT22;2467;48.142;11.616;2023-02-21T03:09:16;8.50;95.60
4904;DHT22;2467;48.142;11.616;2023-02-21T03:09:55;8.50;95.40
4904;DHT22;2467;48.142;11.616;2023-02-21T03:10:37;8.50;95.30
4904;DHT22;2467;48.142;11.616;2023-02-21T03:11:13;8.50;95.30
4904;DHT22;2467;48.142;11.616;2023-02-21T03:11:52;8.50;95.30
4904;DHT22;2467;48.142;11.616;2023-02-21T03:12:33;8.50;95.30
4904;DHT22;2467;48.142;11.616;2023-02-21T03:13:13;8.50;95.20
4904;DHT22;2467;48.142;11.616;2023-02-21T03:13:48;8.60;95.20
4904;DHT22;2467;48.142;11.616;2023-02-21T03:14:26;8.50;95.10
4904;DHT22;2467;48.142;11.616;2023-02-21T03:15:03;8.50;95.10
4904;DHT22;2467;48.142;11.616;2023-02-21T03:15:42;8.60;95.10
4904;DHT22;2467;48.142;11.616;2023-02-21T03:16:21;8.60;95.00
4904;DHT22;2467;48.142;11.616;2023-02-21T03:16:59;8.60;95.00
4904;DHT22;2467;48.142;11.616;2023-02-21T03:17:36;8.60;94.90
4904;DHT22;2467;48.142;11.616;2023-02-21T03:18:15;8.60;94.80
4904;DHT22;2467;48.142;11.616;2023-02-21T03:18:49;8.60;95.00
4904;DHT22;2467;48.142;11.616;2023-02-21T03:19:25;8.60;95.00
4904;DHT22;2467;48.142;11.616;2023-02-21T03:20:02;8.60;94.90
4904;DHT22;2467;48.142;11.616;2023-02-21T03:20:36;8.60;94.90
4904;DHT22;2467;48.142;11.616;2023-02-21T03:21:13;8.60;95.00
4904;DHT22;2467;48.142;11.616;2023-02-21T03:21:50;8.70;95.00
4904;DHT22;2467;48.142;11.616;2023-02-21T03:22:24;8.60;94.90
4904;DHT22;2467;48.142;11.616;2023-02-21T03:22:58;8.60;94.90
4904;DHT22;2467;48.142;11.616;2023-02-21T03:23:33;8.60;94.90
4904;DHT22;2467;48.142;11.616;2023-02-21T03:24:07;8.70;94.90
4904;DHT22;2467;48.142;11.616;2023-02-21T03:24:42;8.70;94.90
4904;DHT22;2467;48.142;11.616;2023-02-21T03:25:17;8.70;94.80
4904;DHT22;2467;48.142;11.616;2023-02-21T03:25:51;8.70;94.70
4904;DHT22;2467;48.142;11.616;2023-02-21T03:26:24;8.70;94.60
4904;DHT22;2467;48.142;11.616;2023-02-21T03:27:02;8.70;94.60
4904;DHT22;2467;48.142;11.616;2023-02-21T03:27:36;8.70;94.60
4904;DHT22;2467;48.142;11.616;2023-02-21T03:28:09;8.60;94.70
4904;DHT22;2467;48.142;11.616;2023-02-21T03:28:44;8.70;94.80
4904;DHT22;2467;48.142;11.616;2023-02-21T03:29:17;8.60;94.90
4904;DHT22;2467;48.142;11.616;2023-02-21T03:29:50;8.60;94.90
4904;DHT22;2467;48.142;11.616;2023-02-21T03:30:24;8.70;95.30
4904;DHT22;2467;48.142;11.616;2023-02-21T03:30:58;8.60;94.90
4904;DHT22;2467;48.142;11.616;2023-02-21T03:31:34;8.70;95.00
4904;DHT22;2467;48.142;11.616;2023-02-21T03:32:12;8.70;94.90
4904;DHT22;2467;48.142;11.616;2023-02-21T03:32:46;8.70;94.90
4904;DHT22;2467;48.142;11.616;2023-02-21T03:33:21;8.60;94.80
4904;DHT22;2467;48.142;11.616;2023-02-21T03:33:53;8.60;94.90
4904;DHT22;2467;48.142;11.616;2023-02-21T03:34:25;8.60;95.00
4904;DHT22;2467;48.142;11.616;2023-02-21T03:34:58;8.70;95.00
4904;DHT22;2467;48.142;11.616;2023-02-21T03:35:30;8.70;94.90
4904;DHT22;2467;48.142;11.616;2023-02-21T03:36:04;8.70;94.90
4904;DHT22;2467;48.142;11.616;2023-02-21T03:36:38;8.70;94.90
4904;DHT22;2467;48.142;11.616;2023-02-21T03:37:19;8.70;94.90
4904;DHT22;2467;48.142;11.616;2023-02-21T03:37:52;8.70;94.90
4904;DHT22;2467;48.142;11.616;2023-02-21T03:38:27;8.60;94.90
4904;DHT22;2467;48.142;11.616;2023-02-21T03:38:59;8.60;95.00
4904;DHT22;2467;48.142;11.616;2023-02-21T03:39:31;8.60;95.00
4904;DHT22;2467;48.142;11.616;2023-02-21T03:40:06;8.60;95.00
4904;DHT22;2467;48.142;11.616;2023-02-21T03:40:38;8.60;95.00
4904;DHT22;2467;48.142;11.616;2023-02-21T03:41:11;8.60;94.90
4904;DHT22;2467;48.142;11.616;2023-02-21T03:41:44;8.60;94.90
4904;DHT22;2467;48.142;11.616;2023-02-21T03:42:16;8.60;94.90
4904;DHT22;2467;48.142;11.616;2023-02-21T03:42:48;8.60;94.90
4904;DHT22;2467;48.142;11.616;2023-02-21T03:43:21;8.60;94.90
4904;DHT22;2467;48.142;11.616;2023-02-21T03:43:53;8.60;94.80
4904;DHT22;2467;48.142;11.616;2023-02-21T03:44:25;8.50;94.80
4904;DHT22;2467;48.142;11.616;2023-02-21T03:44:58;8.60;94.90
4904;DHT22;2467;48.142;11.616;2023-02-21T03:45:30;8.50;94.80
4904;DHT22;2467;48.142;11.616;2023-02-21T03:46:01;8.50;94.80
4904;DHT22;2467;48.142;11.616;2023-02-21T03:46:34;8.50;94.80
4904;DHT22;2467;48.142;11.616;2023-02-21T03:47:06;8.30;94.80
4904;DHT22;2467;48.142;11.616;2023-02-21T03:47:38;8.50;94.90
4904;DHT22;2467;48.142;11.616;2023-02-21T03:48:10;8.50;94.90
4904;DHT22;2467;48.142;11.616;2023-02-21T03:48:51;8.50;94.90
4904;DHT22;2467;48.142;11.616;2023-02-21T03:49:22;8.50;95.00
4904;DHT22;2467;48.142;11.616;2023-02-21T03:49:54;8.40;95.00
4904;DHT22;2467;48.142;11.616;2023-02-21T03:50:27;8.40;95.10
4904;DHT22;2467;48.142;11.616;2023-02-21T03:50:59;8.50;95.20
4904;DHT22;2467;48.142;11.616;2023-02-21T03:51:32;8.40;95.20
4904;DHT22;2467;48.142;11.616;2023-02-21T03:52:05;8.40;95.20
4904;DHT22;2467;48.142;11.616;2023-02-21T03:52:38;8.40;95.20
4904;DHT22;2467;48.142;11.616;2023-02-21T03:53:10;8.40;95.30
4904;DHT22;2467;48.142;11.616;2023-02-21T03:53:43;8.60;95.40
4904;DHT22;2467;48.142;11.616;2023-02-21T03:54:15;8.40;95.40
4904;DHT22;2467;48.142;11.616;2023-02-21T03:54:47;8.40;95.40
4904;DHT22;2467;48.142;11.616;2023-02-21T03:55:20;8.40;95.40
4904;DHT22;2467;48.142;11.616;2023-02-21T03:55:52;8.40;95.40
4904;DHT22;2467;48.142;11.616;2023-02-21T03:56:23;8.40;95.40
4904;DHT22;2467;48.142;11.616;2023-02-21T03:57:07;8.40;95.40
4904;DHT22;2467;48.142;11.616;2023-02-21T03:57:39;8.40;95.50
4904;DHT22;2467;48.142;11.616;2023-02-21T03:58:11;8.30;95.50
4904;DHT22;2467;48.142;11.616;2023-02-21T03:58:44;8.30;95.60
4904;DHT22;2467;48.142;11.616;2023-02-21T03:59:16;8.30;95.60
4904;DHT22;2467;48.142;11.616;2023-02-21T03:59:47;8.30;95.60
4904;DHT22;2467;48.142;11.616;2023-02-21T04:00:20;8.30;95.70
4904;DHT22;2467;48.142;11.616;2023-02-21T04:00:52;8.30;95.70
4904;DHT22;2467;48.142;11.616;2023-02-21T04:01:25;8.30;95.80
4904;DHT22;2467;48.142;11.616;2023-02-21T04:01:58;8.20;95.90
4904;DHT22;2467;48.142;11.616;2023-02-21T04:02:30;8.20;96.00
4904;DHT22;2467;48.142;11.616;2023-02-21T04:03:02;8.20;96.10
4904;DHT22;2467;48.142;11.616;2023-02-21T04:03:34;8.20;96.10
4904;DHT22;2467;48.142;11.616;2023-02-21T04:04:06;8.20;96.40
4904;DHT22;2467;48.142;11.616;2023-02-21T04:04:38;8.20;96.10
4904;DHT22;2467;48.142;11.616;2023-02-21T04:05:11;8.20;96.10
4904;DHT22;2467;48.142;11.616;2023-02-21T04:05:43;8.20;96.20
4904;DHT22;2467;48.142;11.616;2023-02-21T04:06:15;8.20;96.20
4904;DHT22;2467;48.142;11.616;2023-02-21T04:06:49;8.20;96.30
4904;DHT22;2467;48.142;11.616;2023-02-21T04:07:21;8.10;96.30
4904;DHT22;2467;48.142;11.616;2023-02-21T04:07:53;8.10;96.40
4904;DHT22;2467;48.142;11.616;2023-02-21T04:08:26;8.10;96.40
4904;DHT22;2467;48.142;11.616;2023-02-21T04:08:58;8.10;96.50
4904;DHT22;2467;48.142;11.616;2023-02-21T04:09:29;8.10;96.60
4904;DHT22;2467;48.142;11.616;2023-02-21T04:10:03;8.10;96.70
4904;DHT22;2467;48.142;11.616;2023-02-21T04:10:35;8.00;96.80
4904;DHT22;2467;48.142;11.616;2023-02-21T04:11:22;8.00;96.90
4904;DHT22;2467;48.142;11.616;2023-02-21T04:11:54;8.00;97.00
4904;DHT22;2467;48.142;11.616;2023-02-21T04:12:26;8.00;97.30
4904;DHT22;2467;48.142;11.616;2023-02-21T04:12:58;8.00;97.10
4904;DHT22;2467;48.142;11.616;2023-02-21T04:13:31;8.00;97.10
4904;DHT22;2467;48.142;11.616;2023-02-21T04:14:03;8.00;97.20
4904;DHT22;2467;48.142;11.616;2023-02-21T04:14:36;8.00;97.30
4904;DHT22;2467;48.142;11.616;2023-02-21T04:15:09;8.00;97.30
4904;DHT22;2467;48.142;11.616;2023-02-21T04:15:41;8.00;97.20
4904;DHT22;2467;48.142;11.616;2023-02-21T04:16:14;8.00;97.30
4904;DHT22;2467;48.142;11.616;2023-02-21T04:16:46;8.00;97.30
4904;DHT22;2467;48.142;11.616;2023-02-21T04:17:18;8.00;97.30
4904;DHT22;2467;48.142;11.616;2023-02-21T04:17:51;8.00;97.40
4904;DHT22;2467;48.142;11.616;2023-02-21T04:18:22;8.00;97.40
4904;DHT22;2467;48.142;11.616;2023-02-21T04:18:54;8.00;97.50
4904;DHT22;2467;48.142;11.616;2023-02-21T04:19:27;7.90;97.60
4904;DHT22;2467;48.142;11.616;2023-02-21T04:19:59;7.90;97.60
4904;DHT22;2467;48.142;11.616;2023-02-21T04:20:32;7.90;97.70
4904;DHT22;2467;48.142;11.616;2023-02-21T04:21:04;7.90;97.70
4904;DHT22;2467;48.142;11.616;2023-02-21T04:21:36;8.00;97.80
4904;DHT22;2467;48.142;11.616;2023-02-21T04:22:10;7.90;97.80
4904;DHT22;2467;48.142;11.616;2023-02-21T04:22:42;7.90;97.90
4904;DHT22;2467;48.142;11.616;2023-02-21T04:23:20;7.80;98.00
4904;DHT22;2467;48.142;11.616;2023-02-21T04:23:53;7.80;98.20
4904;DHT22;2467;48.142;11.616;2023-02-21T04:24:25;7.80;98.30
4904;DHT22;2467;48.142;11.616;2023-02-21T04:24:57;7.80;98.40
4904;DHT22;2467;48.142;11.616;2023-02-21T04:25:30;7.80;98.50
4904;DHT22;2467;48.142;11.616;2023-02-21T04:26:02;7.90;98.50
4904;DHT22;2467;48.142;11.616;2023-02-21T04:26:34;7.90;98.40
4904;DHT22;2467;48.142;11.616;2023-02-21T04:27:06;7.90;98.40
4904;DHT22;2467;48.142;11.616;2023-02-21T04:27:38;7.90;98.30
4904;DHT22;2467;48.142;11.616;2023-02-21T04:28:10;7.90;98.20
4904;DHT22;2467;48.142;11.616;2023-02-21T04:28:43;7.90;98.20
4904;DHT22;2467;48.142;11.616;2023-02-21T04:29:15;7.90;98.10
4904;DHT22;2467;48.142;11.616;2023-02-21T04:29:47;7.90;98.10
4904;DHT22;2467;48.142;11.616;2023-02-21T04:30:19;7.90;98.20
4904;DHT22;2467;48.142;11.616;2023-02-21T04:30:51;7.90;98.10
4904;DHT22;2467;48.142;11.616;2023-02-21T04:31:23;7.90;98.10
4904;DHT22;2467;48.142;11.616;2023-02-21T04:31:56;7.90;98.10
4904;DHT22;2467;48.142;11.616;2023-02-21T04:32:28;7.90;98.20
4904;DHT22;2467;48.142;11.616;2023-02-21T04:33:00;7.80;98.10
4904;DHT22;2467;48.142;11.616;2023-02-21T04:33:33;7.80;98.20
4904;DHT22;2467;48.142;11.616;2023-02-21T04:34:05;7.80;98.30
4904;DHT22;2467;48.142;11.616;2023-02-21T04:34:43;7.80;98.30
4904;DHT22;2467;48.142;11.616;2023-02-21T04:35:15;7.80;98.50
4904;DHT22;2467;48.142;11.616;2023-02-21T04:35:47;7.70;98.60
4904;DHT22;2467;48.142;11.616;2023-02-21T04:36:21;7.80;98.70
4904;DHT22;2467;48.142;11.616;2023-02-21T04:36:53;7.80;98.80
4904;DHT22;2467;48.142;11.616;2023-02-21T04:37:27;7.80;98.80
4904;DHT22;2467;48.142;11.616;2023-02-21T04:37:58;7.80;98.80
4904;DHT22;2467;48.142;11.616;2023-02-21T04:38:31;7.80;98.70
4904;DHT22;2467;48.142;11.616;2023-02-21T04:39:03;7.80;98.70
4904;DHT22;2467;48.142;11.616;2023-02-21T04:39:35;7.80;98.70
4904;DHT22;2467;48.142;11.616;2023-02-21T04:40:08;7.80;98.70
4904;DHT22;2467;48.142;11.616;2023-02-21T04:40:40;7.80;98.70
4904;DHT22;2467;48.142;11.616;2023-02-21T04:41:12;7.80;98.70
4904;DHT22;2467;48.142;11.616;2023-02-21T04:41:45;7.80;98.80
4904;DHT22;2467;48.142;11.616;2023-02-21T04:42:17;7.80;98.80
4904;DHT22;2467;48.142;11.616;2023-02-21T04:42:49;7.80;98.80
4904;DHT22;2467;48.142;11.616;2023-02-21T04:43:22;7.80;98.80
4904;DHT22;2467;48.142;11.616;2023-02-21T04:43:54;7.80;98.80